»·PEaware :: N522PM KYKM-KGEG

N522PM :: KYKM-KGEG

FLIGHT INFORMATION

Flight Status: Arrived
Operator: Privately registered:
United States
More flights under this callsign
Pilot: Bruce B. (6887)
Aircraft: Unknown
(LEG2)
More flights by this aircraft type
Origin: KYKM Yakima Air Term/Mcallister
United States
Destination: KGEG Spokane Intl
United States
More flights between these airports :: More routes between these airports
Route: +
File this flight plan on PilotEdge
Remarks:
Altitude:
(Current/Filed)
7,500ft
Speed:
(Current/Filed)
230kts
Departed: 01-May-20 06:13 PM
Arrived: 01-May-20 07:00 PM
Distance/Time
Traveled:
138nm/0:47
Distance/Time
To Go:
Arrived

Flight Plot

Page will automatically refresh every two minutes.


Map Options




Map Legend


Flown Route
Filed Route
Departure Airport
Arrival Airport
Navaid (VOR, NDB)
Fix

Horizontal Profiles

Position Reports

Time Latitude Longitude Heading Altitude Ground
Speed
01-May-20 18:00 46.569830 -120.537250 264 1058ft 0kts
01-May-20 18:01 46.569830 -120.537250 264 1058ft 0kts
01-May-20 18:02 46.569830 -120.537250 264 1058ft 0kts
01-May-20 18:03 46.569830 -120.537250 264 1058ft 0kts
01-May-20 18:04 46.569830 -120.537250 264 1058ft 0kts
01-May-20 18:05 46.569830 -120.537250 264 1058ft 0kts
01-May-20 18:06 46.569830 -120.537250 264 1058ft 0kts
01-May-20 18:07 46.569830 -120.537250 264 1058ft 0kts
01-May-20 18:08 46.569830 -120.537250 264 1058ft 0kts
01-May-20 18:09 46.569793 -120.536046 59 1058ft 10kts
01-May-20 18:10 46.570207 -120.534635 108 1058ft 0kts
01-May-20 18:11 46.570207 -120.534633 108 1058ft 0kts
01-May-20 18:12 46.564719 -120.547121 239 1165ft 111kts
01-May-20 18:13 46.583903 -120.562322 68 2212ft 171kts
01-May-20 18:14 46.601191 -120.499490 91 3865ft 162kts
01-May-20 18:15 46.578709 -120.441092 104 4979ft 176kts
01-May-20 18:16 46.572931 -120.367234 102 5822ft 192kts
01-May-20 18:17 46.562668 -120.289703 99 6529ft 197kts
01-May-20 18:18 46.555960 -120.210684 99 7226ft 195kts
01-May-20 18:19 46.541295 -120.133341 114 7503ft 208kts
01-May-20 18:20 46.522037 -120.050071 102 7504ft 226kts
01-May-20 18:21 46.518795 -119.957471 86 7502ft 232kts
01-May-20 18:22 46.545498 -119.873800 52 7503ft 233kts
01-May-20 18:23 46.583510 -119.797244 55 7502ft 233kts
01-May-20 18:24 46.620544 -119.719681 55 7504ft 233kts
01-May-20 18:25 46.657377 -119.642093 55 7504ft 232kts
01-May-20 18:26 46.694124 -119.564479 55 7505ft 232kts
01-May-20 18:27 46.730573 -119.487280 55 7507ft 231kts
01-May-20 18:28 46.767053 -119.409802 55 7509ft 231kts
01-May-20 18:29 46.803289 -119.332626 55 7511ft 230kts
01-May-20 18:30 46.839495 -119.255299 56 7512ft 230kts
01-May-20 18:31 46.875412 -119.178375 56 7513ft 229kts
01-May-20 18:32 46.911355 -119.101183 56 7516ft 229kts
01-May-20 18:33 46.947127 -119.024142 56 7518ft 228kts
01-May-20 18:34 46.982777 -118.947149 56 7518ft 228kts
01-May-20 18:35 47.018229 -118.870370 56 7519ft 228kts
01-May-20 18:36 47.053727 -118.793276 56 7520ft 227kts
01-May-20 18:37 47.089128 -118.716180 56 7521ft 227kts
01-May-20 18:38 47.124482 -118.638972 56 7522ft 227kts
01-May-20 18:39 47.159692 -118.561859 57 7524ft 227kts
01-May-20 18:40 47.194840 -118.484663 57 7527ft 227kts
01-May-20 18:41 47.230569 -118.405307 58 7526ft 233kts
01-May-20 18:42 47.264352 -118.322610 61 7530ft 232kts
01-May-20 18:43 47.296134 -118.240853 61 7476ft 229kts
01-May-20 18:44 47.327667 -118.158440 63 7478ft 228kts
01-May-20 18:45 47.346247 -118.072041 76 7160ft 214kts
01-May-20 18:46 47.362300 -117.986159 73 6486ft 215kts
01-May-20 18:47 47.382651 -117.904051 67 5813ft 211kts
01-May-20 18:48 47.405864 -117.825644 67 5480ft 192kts
01-May-20 18:49 47.427359 -117.759538 63 5481ft 167kts
01-May-20 18:50 47.449065 -117.698425 63 5477ft 161kts
01-May-20 18:51 47.468640 -117.643422 63 5481ft 142kts
01-May-20 18:52 47.487795 -117.592587 66 4957ft 137kts
01-May-20 18:53 47.518545 -117.563757 8 4116ft 141kts
01-May-20 18:54 47.557168 -117.561568 3 3454ft 135kts
01-May-20 18:55 47.591485 -117.553597 21 3243ft 121kts
01-May-20 18:56 47.602002 -117.513537 93 3359ft 110kts
01-May-20 18:57 47.615663 -117.484838 346 2956ft 116kts
01-May-20 18:58 47.616986 -117.524143 267 2353ft 71kts
01-May-20 18:59 47.617662 -117.532228 356 2353ft 0kts
01-May-20 19:00 47.618539 -117.530204 350 2353ft 7kts
01-May-20 19:01 47.620513 -117.527669 91 2353ft 0kts
01-May-20 19:02 47.620513 -117.527668 91 2353ft 0kts
01-May-20 19:03 47.620513 -117.527668 91 2353ft 0kts
01-May-20 19:04 47.620513 -117.527668 91 2353ft 0kts

Navigation Log

Ident Type
Flight plan parsing failed, navigation log unavailable